Wind From: 11-12-2017 04:25 Until: 16:00 warning for: Wind Level: Orange info button

Power and phone distribution networks may be disrupted for relatively long periods., Roofs and chimneys can be damaged. , Tree branches may break. , Vehicles can be deported. , Traffic may be disrupted, particularly on secondary roads in forest areas. Limit your trips. , Limit your speed in highway driving, especially if you drive a vehicle or hitch sensitive to wind. , Do not go for walks in forests or along the coast., In town, be vigilant against possible falling objects., Do not work on roofs and do not touch any electrical line fallen on the ground., Store or secure sensitive objects to wind or likely to be damaged., Always install power generators outside buildings. 


Meteo18 Weather Cam more information Meteo18 Weather Cam


Thunder radar more information blitzortung!


Rain radar more information rain snow radar


Visit our other weather sites:

Template documentation
and downloads

And another site



Weather Underground History page Text

Daily Summary for March 29, 2016 Units:  Metric    English   Both
« Previous Day
Next Day »
Daily Weekly Monthly Yearly Custom
  High: Low: Average:
Temperature: 14.8 °C 2.9 °C 9 °C
Dew Point: 9.8 °C 2.2 °C 6.8 °C
Humidity: 97 % 67 % 87 %
Wind Speed: 14.5 km/h 0.0 km/h 2.8 km/h
Wind Gust: 20.9 km/h - -
Wind:- - SW
Pressure: 1013.4 hPa 1010.0 hPa -
Precipitation: 1.3 mm    
Historical Graphs
 
 
Tabular Data for March 29, 2016
Time Temperature Dew Point Pressure Wind Wind Speed Wind Gust Humidity Rainfall Rate (Hourly)
00:02 8.2 °C 4.6 °C 1010.0 hPa WSW 14.5 km/h 20.9 km/h 78 % 0.0 mm
00:07 8.2 °C 4.8 °C 1010.0 hPa SW 11.3 km/h 20.9 km/h 79 % 0.0 mm
00:12 8.3 °C 4.9 °C 1010.0 hPa SW 6.4 km/h 20.9 km/h 79 % 0.0 mm
00:17 8.2 °C 4.8 °C 1010.0 hPa WSW 6.4 km/h 20.9 km/h 79 % 0.0 mm
00:22 8.2 °C 4.8 °C 1010.0 hPa SW 12.9 km/h 20.9 km/h 79 % 0.0 mm
00:32 8.0 °C 4.8 °C 1010.4 hPa SW 1.6 km/h 17.7 km/h 80 % 0.0 mm
00:42 7.8 °C 4.7 °C 1010.4 hPa SW 4.8 km/h 17.7 km/h 81 % 0.0 mm
00:47 7.7 °C 4.8 °C 1010.4 hPa SW 6.4 km/h 12.9 km/h 82 % 0.0 mm
00:52 7.7 °C 4.8 °C 1010.7 hPa WSW 6.4 km/h 12.9 km/h 82 % 0.0 mm
00:57 7.6 °C 4.9 °C 1010.4 hPa SW 4.8 km/h 12.9 km/h 83 % 0.0 mm
01:02 7.7 °C 5.0 °C 1010.7 hPa SW 6.4 km/h 14.5 km/h 83 % 0.0 mm
01:12 7.7 °C 5.2 °C 1010.7 hPa WSW 4.8 km/h 17.7 km/h 84 % 0.0 mm
01:17 7.7 °C 5.2 °C 1010.7 hPa SW 6.4 km/h 17.7 km/h 84 % 0.0 mm
01:22 7.6 °C 5.1 °C 1010.7 hPa SW 4.8 km/h 17.7 km/h 84 % 0.0 mm
01:32 7.6 °C 5.1 °C 1011.1 hPa WSW 6.4 km/h 11.3 km/h 84 % 0.0 mm
01:37 7.6 °C 5.1 °C 1010.7 hPa SW 4.8 km/h 12.9 km/h 84 % 0.0 mm
01:42 7.5 °C 5.0 °C 1011.1 hPa SW 6.4 km/h 12.9 km/h 84 % 0.0 mm
01:47 7.5 °C 5.0 °C 1011.1 hPa WSW 3.2 km/h 12.9 km/h 84 % 0.0 mm
01:52 7.4 °C 5.0 °C 1011.1 hPa WSW 4.8 km/h 17.7 km/h 85 % 0.0 mm
01:57 7.3 °C 4.9 °C 1011.1 hPa SW 9.7 km/h 17.7 km/h 85 % 0.0 mm
02:02 7.3 °C 4.9 °C 1011.1 hPa WSW 6.4 km/h 17.7 km/h 85 % 0.0 mm
02:12 7.3 °C 4.9 °C 1011.1 hPa WSW 6.4 km/h 16.1 km/h 85 % 0.0 mm
02:17 7.2 °C 4.8 °C 1011.1 hPa SE 8.0 km/h 16.1 km/h 85 % 0.0 mm
02:22 7.2 °C 4.8 °C 1011.1 hPa SW 4.8 km/h 12.9 km/h 85 % 0.0 mm
02:27 7.0 °C 4.7 °C 1011.1 hPa SW 8.0 km/h 12.9 km/h 85 % 0.0 mm
02:32 6.9 °C 4.7 °C 1011.1 hPa WSW 8.0 km/h 12.9 km/h 86 % 0.0 mm
02:37 6.9 °C 4.7 °C 1011.1 hPa SSW 6.4 km/h 12.9 km/h 86 % 0.0 mm
02:47 6.8 °C 4.6 °C 1011.1 hPa West 4.8 km/h 12.9 km/h 86 % 0.0 mm
02:52 6.8 °C 4.6 °C 1011.1 hPa SW 8.0 km/h 17.7 km/h 86 % 0.0 mm
02:57 6.8 °C 4.6 °C 1011.1 hPa SW 8.0 km/h 17.7 km/h 86 % 0.0 mm
03:02 6.8 °C 4.6 °C 1011.4 hPa SSW 3.2 km/h 17.7 km/h 86 % 0.0 mm
03:07 6.8 °C 4.6 °C 1011.4 hPa WSW 6.4 km/h 14.5 km/h 86 % 0.0 mm
03:12 6.8 °C 4.6 °C 1011.4 hPa SW 1.6 km/h 14.5 km/h 86 % 0.0 mm
03:17 6.7 °C 4.7 °C 1011.4 hPa SSW 4.8 km/h 11.3 km/h 87 % 0.0 mm
03:22 6.7 °C 4.7 °C 1011.4 hPa SW 8.0 km/h 11.3 km/h 87 % 0.0 mm
03:27 6.6 °C 4.6 °C 1011.4 hPa WSW 8.0 km/h 14.5 km/h 87 % 0.0 mm
03:32 6.6 °C 4.8 °C 1011.4 hPa SW 4.8 km/h 14.5 km/h 88 % 0.0 mm
03:37 6.6 °C 4.8 °C 1011.4 hPa SW 1.6 km/h 14.5 km/h 88 % 0.0 mm
03:42 6.7 °C 4.9 °C 1011.4 hPa WSW 3.2 km/h 14.5 km/h 88 % 0.0 mm
03:47 6.7 °C 4.9 °C 1011.4 hPa WSW 3.2 km/h 14.5 km/h 88 % 0.0 mm
03:52 6.6 °C 4.8 °C 1011.4 hPa SW 3.2 km/h 11.3 km/h 88 % 0.0 mm
03:57 6.6 °C 4.8 °C 1011.4 hPa WSW 1.6 km/h 11.3 km/h 88 % 0.0 mm
04:02 6.6 °C 4.9 °C 1011.4 hPa SE 1.6 km/h 9.7 km/h 89 % 0.0 mm
04:07 6.6 °C 4.9 °C 1011.4 hPa SW 3.2 km/h 11.3 km/h 89 % 0.0 mm
04:12 6.6 °C 4.9 °C 1011.4 hPa SW 6.4 km/h 11.3 km/h 89 % 0.0 mm
04:17 6.5 °C 4.8 °C 1011.4 hPa SW 1.6 km/h 12.9 km/h 89 % 0.0 mm
04:22 6.4 °C 4.7 °C 1011.4 hPa WSW 1.6 km/h 12.9 km/h 89 % 0.0 mm
04:27 6.4 °C 4.9 °C 1011.4 hPa South 4.8 km/h 9.7 km/h 90 % 0.0 mm
04:32 6.6 °C 5.1 °C 1011.4 hPa SW 1.6 km/h 11.3 km/h 90 % 0.0 mm
04:37 6.6 °C 5.1 °C 1011.4 hPa SW 4.8 km/h 11.3 km/h 90 % 0.0 mm
04:42 6.6 °C 5.1 °C 1011.4 hPa WSW 4.8 km/h 11.3 km/h 90 % 0.0 mm
04:47 6.7 °C 5.2 °C 1011.7 hPa SW 8.0 km/h 9.7 km/h 90 % 0.0 mm
04:52 6.7 °C 5.0 °C 1011.7 hPa SW 3.2 km/h 11.3 km/h 89 % 0.0 mm
04:57 6.7 °C 5.0 °C 1011.7 hPa SW 3.2 km/h 11.3 km/h 89 % 0.0 mm
05:02 6.6 °C 4.9 °C 1011.7 hPa SW 1.6 km/h 12.9 km/h 89 % 0.0 mm
05:12 6.6 °C 5.1 °C 1011.7 hPa SW 1.6 km/h 11.3 km/h 90 % 0.0 mm
05:17 6.5 °C 5.0 °C 1011.7 hPa SW 4.8 km/h 11.3 km/h 90 % 0.0 mm
05:22 6.5 °C 5.0 °C 1011.7 hPa WSW 1.6 km/h 11.3 km/h 90 % 0.0 mm
05:32 6.4 °C 5.0 °C 1011.7 hPa WSW 1.6 km/h 8.0 km/h 91 % 0.0 mm
05:42 6.6 °C 5.2 °C 1011.7 hPa Calm   8.0 km/h 91 % 0.0 mm
05:52 6.4 °C 5.0 °C 1011.7 hPa SW 4.8 km/h 8.0 km/h 91 % 0.0 mm
06:02 6.0 °C 4.8 °C 1011.7 hPa Calm   6.4 km/h 92 % 0.0 mm
06:12 5.5 °C 4.3 °C 1011.7 hPa Calm   6.4 km/h 92 % 0.0 mm
06:17 5.2 °C 4.0 °C 1011.7 hPa Calm   6.4 km/h 92 % 0.0 mm
06:22 5.0 °C 4.0 °C 1011.7 hPa Calm   3.2 km/h 93 % 0.0 mm
06:32 4.7 °C 3.7 °C 1011.7 hPa Calm   3.2 km/h 93 % 0.0 mm
06:37 4.5 °C 3.5 °C 1011.7 hPa Calm   1.6 km/h 93 % 0.0 mm
06:42 4.6 °C 3.7 °C 1011.7 hPa Calm   1.6 km/h 94 % 0.0 mm
06:47 4.6 °C 3.7 °C 1011.7 hPa Calm   1.6 km/h 94 % 0.0 mm
06:52 4.4 °C 3.5 °C 1011.7 hPa Calm   1.6 km/h 94 % 0.0 mm
07:02 4.4 °C 3.7 °C 1011.7 hPa Calm   1.6 km/h 95 % 0.0 mm
07:12 3.7 °C 2.8 °C 1011.7 hPa Calm   1.6 km/h 94 % 0.0 mm
07:17 3.4 °C 2.5 °C 1011.7 hPa Calm   1.6 km/h 94 % 0.0 mm
07:22 3.3 °C 2.4 °C 1011.7 hPa Calm   1.6 km/h 94 % 0.0 mm
07:42 3.0 °C 2.3 °C 1012.1 hPa Calm     95 % 0.0 mm
07:47 2.9 °C 2.2 °C 1012.1 hPa Calm     95 % 0.0 mm
07:52 2.9 °C 2.2 °C 1012.1 hPa Calm     95 % 0.0 mm
07:57 3.1 °C 2.5 °C 1012.1 hPa Calm     96 % 0.0 mm
08:02 3.3 °C 2.7 °C 1012.4 hPa Calm   1.6 km/h 96 % 0.0 mm
08:12 3.6 °C 3.2 °C 1012.4 hPa Calm     97 % 0.0 mm
08:17 3.8 °C 3.4 °C 1012.4 hPa Calm     97 % 0.0 mm
08:22 4.2 °C 3.8 °C 1012.4 hPa Calm   1.6 km/h 97 % 0.0 mm
08:27 4.3 °C 3.9 °C 1012.4 hPa Calm   1.6 km/h 97 % 0.0 mm
08:32 4.4 °C 4.0 °C 1012.4 hPa Calm   1.6 km/h 97 % 0.0 mm
08:42 4.7 °C 4.1 °C 1012.8 hPa Calm   1.6 km/h 96 % 0.0 mm
08:47 4.8 °C 4.2 °C 1012.8 hPa Calm   1.6 km/h 96 % 0.0 mm
08:52 4.9 °C 4.3 °C 1012.8 hPa Calm   1.6 km/h 96 % 0.0 mm
08:57 5.1 °C 4.5 °C 1012.8 hPa Calm   1.6 km/h 96 % 0.0 mm
09:02 5.2 °C 4.6 °C 1012.8 hPa Calm   1.6 km/h 96 % 0.0 mm
09:12 5.5 °C 4.9 °C 1012.8 hPa Calm   1.6 km/h 96 % 0.0 mm
09:17 5.6 °C 4.9 °C 1012.8 hPa Calm   1.6 km/h 95 % 0.0 mm
09:22 5.7 °C 5.0 °C 1012.8 hPa Calm   1.6 km/h 95 % 0.0 mm
09:32 6.0 °C 5.3 °C 1012.8 hPa Calm   1.6 km/h 95 % 0.0 mm
09:37 6.2 °C 5.5 °C 1012.8 hPa Calm   1.6 km/h 95 % 0.0 mm
09:42 6.3 °C 5.6 °C 1012.8 hPa West 1.6 km/h 1.6 km/h 95 % 0.0 mm
09:47 6.4 °C 5.5 °C 1012.8 hPa Calm   1.6 km/h 94 % 0.0 mm
09:52 6.6 °C 5.7 °C 1012.8 hPa Calm   3.2 km/h 94 % 0.0 mm
09:57 6.7 °C 5.8 °C 1013.1 hPa SW 1.6 km/h 3.2 km/h 94 % 0.0 mm
10:02 6.8 °C 5.9 °C 1013.1 hPa WNW 1.6 km/h 3.2 km/h 94 % 0.0 mm
10:07 7.1 °C 6.0 °C 1013.1 hPa Calm   3.2 km/h 93 % 0.0 mm
10:12 7.3 °C 6.2 °C 1013.1 hPa Calm   3.2 km/h 93 % 0.0 mm
10:17 7.5 °C 6.4 °C 1013.1 hPa Calm   3.2 km/h 93 % 0.0 mm
10:22 8.0 °C 6.8 °C 1013.1 hPa SW 1.6 km/h 1.6 km/h 92 % 0.0 mm
10:32 8.3 °C 6.8 °C 1013.1 hPa Calm   4.8 km/h 90 % 0.0 mm
10:42 8.6 °C 7.1 °C 1013.4 hPa WSW 1.6 km/h 4.8 km/h 90 % 0.0 mm
10:47 8.7 °C 7.0 °C 1013.4 hPa SW 1.6 km/h 4.8 km/h 89 % 0.0 mm
10:52 8.9 °C 7.0 °C 1013.4 hPa SW 4.8 km/h 4.8 km/h 88 % 0.0 mm
10:57 9.1 °C 7.1 °C 1013.1 hPa SSW 3.2 km/h 8.0 km/h 87 % 0.0 mm
11:07 9.4 °C 7.2 °C 1013.4 hPa SW 8.0 km/h 11.3 km/h 86 % 0.0 mm
11:12 9.6 °C 7.4 °C 1013.4 hPa WSW 6.4 km/h 11.3 km/h 86 % 0.0 mm
11:17 9.6 °C 7.2 °C 1013.4 hPa SW 11.3 km/h 12.9 km/h 85 % 0.0 mm
11:22 9.7 °C 7.5 °C 1013.1 hPa SW 3.2 km/h 12.9 km/h 86 % 0.0 mm
11:32 9.8 °C 7.6 °C 1013.1 hPa WSW 6.4 km/h 11.3 km/h 86 % 0.0 mm
11:37 9.8 °C 7.2 °C 1013.1 hPa SW 3.2 km/h 12.9 km/h 84 % 0.0 mm
11:42 9.9 °C 7.1 °C 1013.4 hPa WSW 3.2 km/h 12.9 km/h 83 % 0.0 mm
11:47 10.1 °C 7.7 °C 1013.4 hPa Calm   11.3 km/h 85 % 0.0 mm
11:52 10.3 °C 7.7 °C 1013.4 hPa SSW 6.4 km/h 11.3 km/h 84 % 0.0 mm
11:57 10.4 °C 7.6 °C 1013.4 hPa WSW 3.2 km/h 11.3 km/h 83 % 0.0 mm
12:02 10.6 °C 8.0 °C 1013.1 hPa Calm   9.7 km/h 84 % 0.0 mm
12:12 11.1 °C 8.1 °C 1013.1 hPa WNW 1.6 km/h 9.7 km/h 82 % 0.0 mm
12:17 11.3 °C 8.3 °C 1013.1 hPa WSW 4.8 km/h 12.9 km/h 82 % 0.0 mm
12:22 11.4 °C 8.4 °C 1013.1 hPa West 6.4 km/h 12.9 km/h 82 % 0.0 mm
12:32 10.9 °C 7.6 °C 1012.8 hPa WSW 1.6 km/h 12.9 km/h 80 % 0.0 mm
12:42 10.9 °C 7.8 °C 1012.8 hPa WSW 6.4 km/h 9.7 km/h 81 % 0.0 mm
12:47 11.0 °C 8.0 °C 1012.8 hPa SSW 4.8 km/h 9.7 km/h 82 % 0.0 mm
12:52 11.1 °C 8.1 °C 1012.8 hPa SW 6.4 km/h 9.7 km/h 82 % 0.0 mm
12:57 11.5 °C 8.7 °C 1012.8 hPa SW 1.6 km/h 9.7 km/h 83 % 0.0 mm
13:02 11.8 °C 8.6 °C 1012.8 hPa WSW 3.2 km/h 8.0 km/h 81 % 0.0 mm
13:12 12.4 °C 9.0 °C 1012.8 hPa WSW 4.8 km/h 14.5 km/h 80 % 0.0 mm
13:17 12.7 °C 9.2 °C 1012.8 hPa SW 4.8 km/h 14.5 km/h 79 % 0.0 mm
13:22 12.8 °C 9.1 °C 1012.8 hPa WSW 8.0 km/h 8.0 km/h 78 % 0.0 mm
13:27 12.5 °C 8.6 °C 1012.8 hPa SW 4.8 km/h 12.9 km/h 77 % 0.0 mm
13:32 12.2 °C 8.5 °C 1012.8 hPa WSW 4.8 km/h 12.9 km/h 78 % 0.0 mm
13:37 12.1 °C 8.8 °C 1012.8 hPa SW 11.3 km/h 12.9 km/h 80 % 0.0 mm
13:42 11.4 °C 8.4 °C 1012.8 hPa WSW 3.2 km/h 11.3 km/h 82 % 0.0 mm
13:52 11.0 °C 8.4 °C 1012.8 hPa SW 4.8 km/h 14.5 km/h 84 % 0.0 mm
13:57 10.9 °C 8.1 °C 1012.8 hPa SW 1.6 km/h 14.5 km/h 83 % 0.3 mm
14:02 10.9 °C 8.5 °C 1013.1 hPa Calm   14.5 km/h 85 % 0.3 mm
14:07 10.8 °C 8.4 °C 1013.1 hPa SW 4.8 km/h 12.9 km/h 85 % 0.3 mm
14:12 10.6 °C 8.5 °C 1013.1 hPa WSW 1.6 km/h 12.9 km/h 87 % 0.3 mm
14:17 10.6 °C 8.7 °C 1012.8 hPa SSE 1.6 km/h 9.7 km/h 88 % 0.5 mm
14:22 10.7 °C 8.8 °C 1012.8 hPa Calm   9.7 km/h 88 % 0.8 mm
14:27 10.9 °C 9.2 °C 1012.8 hPa Calm   9.7 km/h 89 % 0.8 mm
14:32 10.9 °C 9.0 °C 1012.8 hPa Calm   6.4 km/h 88 % 0.8 mm
14:37 11.1 °C 9.2 °C 1012.8 hPa Calm   4.8 km/h 88 % 0.8 mm
14:42 11.2 °C 9.3 °C 1013.1 hPa Calm   3.2 km/h 88 % 0.8 mm
14:47 11.3 °C 9.2 °C 1012.8 hPa Calm   3.2 km/h 87 % 0.8 mm
14:52 11.5 °C 9.4 °C 1012.8 hPa SW 1.6 km/h 3.2 km/h 87 % 0.5 mm
14:57 11.6 °C 9.2 °C 1012.8 hPa SW 1.6 km/h 6.4 km/h 85 % 0.5 mm
15:02 11.7 °C 9.3 °C 1012.8 hPa Calm   6.4 km/h 85 % 0.5 mm
15:12 12.1 °C 9.5 °C 1012.8 hPa SW 1.6 km/h 6.4 km/h 84 % 0.5 mm
15:17 12.2 °C 9.2 °C 1012.8 hPa Calm   3.2 km/h 82 % 0.0 mm
15:22 12.4 °C 9.6 °C 1012.4 hPa SW 1.6 km/h 4.8 km/h 83 % 0.0 mm
15:27 12.6 °C 9.4 °C 1012.4 hPa WSW 3.2 km/h 4.8 km/h 81 % 0.0 mm
15:32 12.6 °C 9.6 °C 1012.4 hPa SW 3.2 km/h 4.8 km/h 82 % 0.0 mm
15:42 13.2 °C 9.8 °C 1012.1 hPa WSW 3.2 km/h 6.4 km/h 80 % 0.0 mm
15:47 13.2 °C 9.6 °C 1012.1 hPa WSW 3.2 km/h 6.4 km/h 79 % 0.0 mm
15:57 13.2 °C 9.1 °C 1012.1 hPa WSW 4.8 km/h 8.0 km/h 76 % 0.0 mm
16:02 13.3 °C 9.2 °C 1012.1 hPa SW 1.6 km/h 8.0 km/h 76 % 0.0 mm
16:07 13.6 °C 9.6 °C 1012.1 hPa SW 8.0 km/h 8.0 km/h 77 % 0.0 mm
16:12 13.6 °C 9.4 °C 1012.1 hPa WSW 6.4 km/h 8.0 km/h 76 % 0.0 mm
16:17 13.5 °C 9.0 °C 1011.7 hPa WSW 6.4 km/h 8.0 km/h 74 % 0.0 mm
16:22 13.4 °C 8.9 °C 1011.7 hPa SW 4.8 km/h 11.3 km/h 74 % 0.0 mm
16:27 13.6 °C 9.6 °C 1011.7 hPa SE 6.4 km/h 11.3 km/h 77 % 0.0 mm
16:32 13.9 °C 9.3 °C 1011.7 hPa SSE 4.8 km/h 11.3 km/h 74 % 0.0 mm
16:37 14.3 °C 9.7 °C 1011.7 hPa WSW 8.0 km/h 9.7 km/h 74 % 0.0 mm
16:42 14.1 °C 8.9 °C 1011.7 hPa SW 4.8 km/h 9.7 km/h 71 % 0.0 mm
16:47 13.9 °C 9.3 °C 1011.7 hPa SSW 6.4 km/h 11.3 km/h 74 % 0.0 mm
16:52 13.9 °C 9.3 °C 1011.7 hPa SW 3.2 km/h 11.3 km/h 74 % 0.0 mm
16:57 14.8 °C 9.8 °C 1011.4 hPa South 3.2 km/h 11.3 km/h 72 % 0.0 mm
17:02 14.8 °C 9.6 °C 1011.7 hPa SW 11.3 km/h 11.3 km/h 71 % 0.0 mm
17:07 14.4 °C 8.3 °C 1011.7 hPa SW 3.2 km/h 12.9 km/h 67 % 0.0 mm
17:12 14.4 °C 9.2 °C 1011.7 hPa SW 6.4 km/h 12.9 km/h 71 % 0.0 mm
17:17 14.6 °C 9.4 °C 1011.4 hPa Calm   12.9 km/h 71 % 0.0 mm
17:22 14.7 °C 9.5 °C 1011.4 hPa SW 6.4 km/h 12.9 km/h 71 % 0.0 mm
17:27 14.6 °C 9.4 °C 1011.4 hPa WSW 6.4 km/h 11.3 km/h 71 % 0.0 mm
17:37 14.4 °C 9.6 °C 1011.4 hPa WSW 4.8 km/h 11.3 km/h 73 % 0.0 mm
17:42 14.2 °C 8.8 °C 1011.7 hPa SW 6.4 km/h 11.3 km/h 70 % 0.0 mm
17:47 14.1 °C 8.7 °C 1011.4 hPa SW 3.2 km/h 11.3 km/h 70 % 0.0 mm
17:52 14.2 °C 9.6 °C 1011.4 hPa SW 4.8 km/h 11.3 km/h 74 % 0.0 mm
17:57 14.1 °C 9.5 °C 1011.4 hPa WSW 3.2 km/h 11.3 km/h 74 % 0.0 mm
18:02 13.9 °C 9.5 °C 1011.4 hPa SW 3.2 km/h 9.7 km/h 75 % 0.0 mm
18:07 13.8 °C 9.0 °C 1011.4 hPa SSW 6.4 km/h 8.0 km/h 73 % 0.0 mm
18:12 13.8 °C 9.0 °C 1011.4 hPa SW 4.8 km/h 8.0 km/h 73 % 0.0 mm
18:17 13.7 °C 8.9 °C 1011.4 hPa SW 6.4 km/h 8.0 km/h 73 % 0.0 mm
18:22 13.6 °C 8.6 °C 1011.4 hPa WSW 8.0 km/h 8.0 km/h 72 % 0.0 mm
18:32 13.3 °C 8.8 °C 1011.4 hPa SW 6.4 km/h 9.7 km/h 74 % 0.0 mm
18:37 13.2 °C 8.9 °C 1011.4 hPa SW 9.7 km/h 16.1 km/h 75 % 0.0 mm
18:42 12.9 °C 8.8 °C 1011.4 hPa SSW 6.4 km/h 16.1 km/h 76 % 0.0 mm
18:47 12.9 °C 8.8 °C 1011.7 hPa WSW 3.2 km/h 16.1 km/h 76 % 0.0 mm
18:52 12.7 °C 9.0 °C 1011.7 hPa SW 1.6 km/h 16.1 km/h 78 % 0.0 mm
18:57 12.5 °C 9.1 °C 1011.7 hPa Calm   14.5 km/h 80 % 0.3 mm
19:02 12.3 °C 9.1 °C 1011.7 hPa SW 3.2 km/h 11.3 km/h 81 % 0.3 mm
19:07 12.2 °C 9.4 °C 1011.7 hPa WSW 3.2 km/h 9.7 km/h 83 % 0.3 mm
19:12 12.1 °C 9.5 °C 1011.7 hPa Calm   9.7 km/h 84 % 0.3 mm
19:17 12.1 °C 9.3 °C 1011.7 hPa Calm   4.8 km/h 83 % 0.5 mm
19:22 12.0 °C 9.2 °C 1011.7 hPa SW 1.6 km/h 4.8 km/h 83 % 0.5 mm
19:32 11.4 °C 9.0 °C 1011.7 hPa Calm   3.2 km/h 85 % 0.5 mm
19:42 11.0 °C 9.1 °C 1011.4 hPa Calm   3.2 km/h 88 % 0.5 mm
19:47 10.9 °C 9.2 °C 1011.4 hPa Calm   1.6 km/h 89 % 0.5 mm
19:52 10.7 °C 9.0 °C 1011.4 hPa Calm   1.6 km/h 89 % 0.5 mm
19:57 10.5 °C 8.8 °C 1011.4 hPa Calm   1.6 km/h 89 % 0.3 mm
20:02 10.4 °C 8.8 °C 1011.4 hPa Calm   1.6 km/h 90 % 0.3 mm
20:07 10.3 °C 8.9 °C 1011.7 hPa Calm   1.6 km/h 91 % 0.3 mm
20:12 10.3 °C 8.9 °C 1011.4 hPa Calm   1.6 km/h 91 % 0.3 mm
20:17 10.2 °C 8.6 °C 1011.4 hPa WSW 1.6 km/h 1.6 km/h 90 % 0.0 mm
20:22 10.0 °C 8.6 °C 1011.1 hPa Calm   1.6 km/h 91 % 0.0 mm
20:32 9.6 °C 8.2 °C 1011.4 hPa Calm   1.6 km/h 91 % 0.0 mm
20:37 9.3 °C 7.9 °C 1011.4 hPa Calm   1.6 km/h 91 % 0.0 mm
20:42 9.1 °C 7.7 °C 1011.4 hPa Calm   1.6 km/h 91 % 0.0 mm
20:47 9.0 °C 7.8 °C 1011.4 hPa Calm   1.6 km/h 92 % 0.0 mm
20:52 8.9 °C 7.7 °C 1011.4 hPa Calm   1.6 km/h 92 % 0.0 mm
20:57 9.0 °C 7.9 °C 1011.4 hPa Calm   1.6 km/h 93 % 0.0 mm
21:02 8.9 °C 7.7 °C 1011.4 hPa Calm   1.6 km/h 92 % 0.0 mm
21:12 8.6 °C 7.4 °C 1011.7 hPa Calm   1.6 km/h 92 % 0.0 mm
21:17 8.3 °C 7.1 °C 1011.7 hPa Calm   1.6 km/h 92 % 0.0 mm
21:27 7.8 °C 6.6 °C 1011.7 hPa Calm     92 % 0.0 mm
21:32 7.6 °C 6.4 °C 1011.7 hPa Calm     92 % 0.0 mm
21:37 7.4 °C 6.3 °C 1011.7 hPa Calm     93 % 0.0 mm
21:42 7.4 °C 6.5 °C 1011.7 hPa Calm     94 % 0.0 mm
21:47 7.5 °C 6.6 °C 1011.7 hPa Calm     94 % 0.0 mm
21:52 7.5 °C 6.8 °C 1011.7 hPa Calm     95 % 0.0 mm
21:57 7.6 °C 6.9 °C 1012.1 hPa Calm     95 % 0.0 mm
22:02 7.5 °C 6.6 °C 1011.7 hPa Calm     94 % 0.0 mm
22:07 7.6 °C 6.9 °C 1011.7 hPa Calm   1.6 km/h 95 % 0.0 mm
22:12 7.7 °C 6.9 °C 1011.7 hPa Calm   1.6 km/h 95 % 0.0 mm
22:17 7.7 °C 6.9 °C 1011.7 hPa Calm   1.6 km/h 95 % 0.0 mm
22:22 7.8 °C 7.0 °C 1011.7 hPa Calm     95 % 0.0 mm
22:27 7.8 °C 7.0 °C 1011.7 hPa Calm     95 % 0.0 mm
22:32 7.8 °C 6.9 °C 1011.7 hPa Calm     94 % 0.0 mm
22:42 7.7 °C 6.9 °C 1011.7 hPa Calm     95 % 0.0 mm
22:47 7.7 °C 6.9 °C 1011.7 hPa Calm     95 % 0.0 mm
22:52 7.9 °C 7.3 °C 1012.1 hPa Calm     96 % 0.0 mm
22:57 8.2 °C 7.6 °C 1012.1 hPa Calm     96 % 0.0 mm
23:02 8.5 °C 7.9 °C 1012.1 hPa Calm     96 % 0.0 mm
23:07 8.7 °C 7.9 °C 1012.1 hPa Calm     95 % 0.0 mm
23:12 8.7 °C 7.8 °C 1012.1 hPa Calm     94 % 0.0 mm
23:17 8.5 °C 7.6 °C 1012.1 hPa Calm     94 % 0.0 mm
23:27 8.2 °C 7.3 °C 1012.1 hPa Calm     94 % 0.0 mm
23:32 8.2 °C 7.3 °C 1012.1 hPa Calm     94 % 0.0 mm
23:37 8.2 °C 7.3 °C 1011.7 hPa Calm     94 % 0.0 mm
23:42 8.1 °C 7.2 °C 1011.7 hPa Calm     94 % 0.0 mm
23:47 8.0 °C 7.1 °C 1011.7 hPa Calm     94 % 0.0 mm
23:57 7.6 °C 6.5 °C 1011.7 hPa Calm     93 % 0.0 mm
Meteo18
Compliments of Weather Underground - 4 mb

Script developed by  Jim McMurry - jmcmurry@mwt.net Adapted for the template by  Wim van der Kuil - Leuven-Template.eu

You find our weather info also at:

European Weather Network

Weather Underground

Equipment we use:

Weather-station
Davis Vue

Weather-program
Meteohub

Weather-server
Raspberry PI 2 B+

Provider
1 and 1

Davis Vue

Meteohub

Raspberry PI 2 B+

1 and 1